Time;durP1;ratioP1;P1;durP2;ratioP2;P2;SDS_P1;SDS_P2;PMS_P1;PMS_P2;Temp;Humidity;BMP_temperature;BMP_pressure;BME280_temperature;BME280_humidity;BME280_pressure;Samples;Min_cycle;Max_cycle;Signal;HPM_P1;HPM_P2
2023/05/20 00:01:19;;;;;;;3.63;1.80;;;14.50;62.00;;;;;;4103926;28;20097;-52
2023/05/20 00:03:41;;;;;;;2.88;1.50;;;14.50;62.10;;;;;;4095531;28;20039;-50
2023/05/20 00:06:04;;;;;;;1.88;1.60;;;14.50;62.10;;;;;;4103588;28;20411;-55
2023/05/20 00:08:26;;;;;;;2.13;1.70;;;14.40;62.30;;;;;;4101689;28;20571;-53
2023/05/20 00:10:49;;;;;;;2.45;1.65;;;14.50;62.30;;;;;;4103470;28;20067;-52
2023/05/20 00:13:11;;;;;;;3.40;1.52;;;14.50;62.40;;;;;;4099762;28;20096;-49
2023/05/20 00:15:35;;;;;;;2.25;1.50;;;14.50;62.40;;;;;;4106179;28;20032;-52
2023/05/20 00:17:57;;;;;;;2.17;1.58;;;14.50;62.40;;;;;;4103797;28;20065;-55
2023/05/20 00:20:20;;;;;;;2.42;1.58;;;14.50;63.00;;;;;;4099991;28;20039;-51
2023/05/20 00:22:42;;;;;;;4.57;1.75;;;14.50;62.50;;;;;;4103344;28;20047;-58
2023/05/20 00:25:05;;;;;;;2.63;1.50;;;14.50;63.20;;;;;;4103692;28;20462;-56
2023/05/20 00:27:27;;;;;;;1.65;1.42;;;14.60;62.60;;;;;;4104220;28;20043;-56
2023/05/20 00:29:50;;;;;;;1.88;1.38;;;14.60;62.50;;;;;;4110347;28;20389;-49
2023/05/20 00:32:13;;;;;;;4.30;1.55;;;14.60;62.40;;;;;;4117314;28;20065;-47
2023/05/20 00:34:35;;;;;;;4.93;1.67;;;14.60;62.60;;;;;;4123942;28;20463;-50
2023/05/20 00:36:58;;;;;;;1.52;1.33;;;14.60;62.20;;;;;;4128317;28;20419;-48
2023/05/20 00:39:20;;;;;;;2.55;1.70;;;14.60;61.90;;;;;;4121190;28;20034;-47
2023/05/20 00:41:43;;;;;;;2.13;1.70;;;14.60;61.40;;;;;;4118601;28;20034;-47
2023/05/20 00:44:05;;;;;;;2.42;1.60;;;14.60;61.20;;;;;;4115823;28;20045;-50
2023/05/20 00:46:28;;;;;;;3.80;1.48;;;14.60;61.00;;;;;;4121166;28;20450;-49
2023/05/20 00:48:51;;;;;;;2.78;1.70;;;14.60;60.90;;;;;;4127039;28;20045;-46
2023/05/20 00:51:14;;;;;;;1.90;1.50;;;14.60;60.80;;;;;;4129842;28;20031;-48
2023/05/20 00:53:36;;;;;;;1.88;1.30;;;14.60;60.70;;;;;;4115395;28;20482;-47
2023/05/20 00:56:00;;;;;;;2.85;1.67;;;14.60;60.90;;;;;;4125936;28;20469;-49
2023/05/20 00:58:23;;;;;;;2.70;1.67;;;14.60;62.10;;;;;;4122291;28;20126;-53
2023/05/20 01:00:45;;;;;;;2.67;1.83;;;14.60;63.00;;;;;;4118311;28;20042;-52
2023/05/20 01:03:08;;;;;;;6.07;1.70;;;14.60;63.70;;;;;;4125494;28;20038;-49
2023/05/20 01:05:31;;;;;;;9.80;2.00;;;14.70;63.80;;;;;;4116137;28;20042;-48
2023/05/20 01:07:53;;;;;;;4.80;2.00;;;14.70;63.20;;;;;;4120041;28;20075;-47
2023/05/20 01:10:16;;;;;;;1.65;1.38;;;14.70;63.00;;;;;;4122236;28;20038;-49
2023/05/20 01:12:42;;;;;;;5.15;1.70;;;14.70;62.70;;;;;;4122058;28;20407;-50
2023/05/20 01:15:13;;;;;;;2.70;1.25;;;14.70;62.40;;;;;;4121100;28;20050;-45
2023/05/20 01:17:43;;;;;;;2.55;1.45;;;14.70;62.40;;;;;;4124581;28;20054;-45
2023/05/20 01:20:11;;;;;;;3.83;1.70;;;14.70;62.50;;;;;;4119386;28;20067;-47
2023/05/20 01:22:36;;;;;;;2.90;1.45;;;14.70;62.30;;;;;;4123524;28;20038;-44
2023/05/20 01:24:58;;;;;;;2.38;1.52;;;14.80;62.50;;;;;;4114676;28;20043;-47
2023/05/20 01:27:21;;;;;;;1.67;1.25;;;14.80;62.40;;;;;;4115711;28;20096;-48
2023/05/20 01:29:44;;;;;;;2.77;1.50;;;14.80;62.20;;;;;;4119835;28;20082;-47
2023/05/20 01:32:11;;;;;;;1.80;1.40;;;14.80;61.90;;;;;;4121015;28;20058;-48
2023/05/20 01:34:35;;;;;;;2.53;1.42;;;14.80;61.70;;;;;;4104366;28;20062;-47
2023/05/20 01:36:57;;;;;;;;;;;14.80;61.50;;;;;;4119996;28;20044;-49
2023/05/20 01:39:20;;;;;;;1.83;1.38;;;14.80;61.40;;;;;;4120281;28;19913;-49
2023/05/20 01:41:43;;;;;;;2.15;1.30;;;14.80;61.30;;;;;;4119059;28;20042;-48
2023/05/20 01:44:06;;;;;;;2.13;1.13;;;14.80;61.20;;;;;;4116847;28;20041;-49
2023/05/20 01:46:33;;;;;;;1.40;1.25;;;14.80;61.30;;;;;;4120829;28;20038;-49
2023/05/20 01:48:55;;;;;;;1.45;1.30;;;14.80;61.20;;;;;;4121256;28;20600;-48
2023/05/20 01:51:18;;;;;;;1.95;1.23;;;14.90;61.10;;;;;;4120174;28;20039;-47
2023/05/20 01:53:40;;;;;;;1.55;1.33;;;14.90;60.90;;;;;;4117497;28;20360;-49
2023/05/20 01:56:03;;;;;;;1.80;1.13;;;14.90;60.90;;;;;;4124662;28;20066;-48
2023/05/20 01:58:25;;;;;;;1.58;1.30;;;14.90;61.00;;;;;;4118314;28;20043;-50
2023/05/20 02:00:48;;;;;;;2.28;1.27;;;14.90;61.10;;;;;;4123255;28;20039;-47
2023/05/20 02:03:10;;;;;;;2.22;1.30;;;14.90;61.10;;;;;;4123408;28;20643;-47
2023/05/20 02:05:32;;;;;;;2.17;1.30;;;14.90;61.50;;;;;;4131178;28;20064;-51
2023/05/20 02:07:55;;;;;;;1.50;1.20;;;14.90;61.30;;;;;;4123479;28;20422;-48
2023/05/20 02:10:17;;;;;;;2.60;1.40;;;15.00;61.20;;;;;;4120558;28;20038;-47
2023/05/20 02:12:40;;;;;;;1.52;1.10;;;15.00;61.10;;;;;;4118857;28;20615;-46
2023/05/20 02:15:02;;;;;;;1.50;1.20;;;15.00;61.10;;;;;;4118564;28;20050;-47
2023/05/20 02:17:25;;;;;;;2.40;1.08;;;15.00;61.10;;;;;;4119848;28;20376;-52
2023/05/20 02:19:48;;;;;;;1.50;1.05;;;15.00;61.10;;;;;;4117356;28;20108;-52
2023/05/20 02:22:11;;;;;;;2.13;1.42;;;15.00;61.00;;;;;;4124718;28;20027;-50
2023/05/20 02:24:33;;;;;;;1.70;1.30;;;15.00;61.10;;;;;;4123642;28;20042;-51
2023/05/20 02:26:57;;;;;;;1.95;1.10;;;15.10;61.10;;;;;;4114678;28;20198;-49
2023/05/20 02:29:25;;;;;;;2.28;1.35;;;15.10;61.10;;;;;;4123943;28;20038;-52
2023/05/20 02:31:48;;;;;;;2.47;1.40;;;15.10;61.10;;;;;;4124995;28;20112;-48
2023/05/20 02:34:10;;;;;;;1.83;1.10;;;15.10;61.00;;;;;;4115685;28;20050;-50
2023/05/20 02:36:36;;;;;;;1.88;1.20;;;15.10;61.00;;;;;;4101496;28;20089;-50
2023/05/20 02:39:00;;;;;;;2.67;1.17;;;15.20;60.90;;;;;;4104347;28;20039;-52
2023/05/20 02:41:28;;;;;;;1.80;1.30;;;15.20;60.90;;;;;;4102670;28;20039;-52
2023/05/20 02:43:51;;;;;;;1.27;1.08;;;15.20;60.80;;;;;;4117937;28;20097;-49
2023/05/20 02:46:14;;;;;;;1.58;1.20;;;15.20;60.80;;;;;;4125132;28;20038;-48
2023/05/20 02:48:40;;;;;;;1.70;1.25;;;15.30;60.70;;;;;;4127661;28;20101;-50
2023/05/20 02:51:02;;;;;;;1.33;1.23;;;15.30;60.80;;;;;;4113628;28;20046;-52
2023/05/20 02:53:27;;;;;;;1.92;1.40;;;15.30;60.50;;;;;;4101791;28;20063;-47
2023/05/20 02:55:50;;;;;;;2.60;1.20;;;15.30;60.50;;;;;;4114908;28;20411;-47
2023/05/20 02:58:13;;;;;;;3.03;1.40;;;15.40;60.40;;;;;;4123770;28;20414;-47
2023/05/20 03:00:39;;;;;;;1.58;1.20;;;15.40;60.30;;;;;;4123780;28;20042;-50
2023/05/20 03:03:05;;;;;;;3.47;1.27;;;15.50;60.20;;;;;;4120923;28;20376;-50
2023/05/20 03:05:36;;;;;;;1.60;1.10;;;15.50;60.10;;;;;;4121650;28;20046;-48
2023/05/20 03:08:17;;;;;;;2.42;1.20;;;15.50;60.00;;;;;;4123349;28;20022;-53
2023/05/20 03:10:40;;;;;;;2.00;1.20;;;15.50;59.80;;;;;;4128398;28;20061;-48
2023/05/20 03:13:03;;;;;;;2.03;1.10;;;15.60;59.70;;;;;;4112380;28;20061;-49
2023/05/20 03:15:26;;;;;;;1.42;1.20;;;15.60;59.60;;;;;;4121564;28;20054;-48
2023/05/20 03:17:54;;;;;;;1.45;1.20;;;15.70;59.70;;;;;;4099796;28;20173;-50
2023/05/20 03:20:17;;;;;;;2.22;1.60;;;15.70;59.70;;;;;;4122978;28;20046;-47
2023/05/20 03:22:39;;;;;;;2.22;1.60;;;15.80;60.00;;;;;;4124641;28;20089;-49
2023/05/20 03:25:02;;;;;;;2.28;1.40;;;15.80;60.00;;;;;;4114612;28;20439;-47
2023/05/20 03:27:25;;;;;;;1.30;1.20;;;15.90;60.10;;;;;;4115795;28;20046;-47
2023/05/20 03:29:50;;;;;;;1.45;1.25;;;15.90;60.10;;;;;;4118776;28;20483;-47
2023/05/20 03:32:12;;;;;;;2.00;1.42;;;16.00;60.10;;;;;;4115192;28;20551;-50
2023/05/20 03:34:35;;;;;;;1.73;1.10;;;16.00;60.10;;;;;;4117568;28;20121;-51
2023/05/20 03:36:59;;;;;;;1.67;1.33;;;16.10;60.10;;;;;;4117614;28;20034;-48
2023/05/20 03:39:21;;;;;;;1.23;0.90;;;16.10;60.00;;;;;;4116714;28;20788;-50
2023/05/20 03:41:43;;;;;;;1.83;1.10;;;16.10;59.90;;;;;;4113136;28;20501;-47
2023/05/20 03:44:06;;;;;;;1.70;1.30;;;16.20;59.80;;;;;;4114651;28;20089;-50
2023/05/20 03:46:29;;;;;;;1.92;1.10;;;16.30;59.70;;;;;;4122326;28;20038;-47
2023/05/20 03:48:52;;;;;;;1.80;1.23;;;16.30;59.60;;;;;;4125378;28;20054;-50
2023/05/20 03:51:14;;;;;;;1.48;1.08;;;16.40;59.50;;;;;;4130272;28;20037;-47
2023/05/20 03:53:37;;;;;;;1.27;1.02;;;16.40;59.30;;;;;;4119417;28;20556;-48
2023/05/20 03:56:00;;;;;;;1.25;1.10;;;16.50;59.10;;;;;;4128655;28;20041;-46
2023/05/20 03:58:25;;;;;;;1.17;0.98;;;16.60;59.00;;;;;;4129145;28;20102;-52
2023/05/20 04:00:47;;;;;;;1.20;0.90;;;16.60;58.70;;;;;;4135427;28;20064;-50
2023/05/20 04:03:10;;;;;;;0.93;0.80;;;16.70;58.50;;;;;;4136132;28;20046;-52
2023/05/20 04:05:35;;;;;;;0.80;0.80;;;16.80;58.50;;;;;;4137258;28;20041;-51
2023/05/20 04:07:58;;;;;;;2.42;1.00;;;16.80;58.40;;;;;;4127246;28;20038;-48
2023/05/20 04:10:21;;;;;;;1.40;0.98;;;16.80;58.20;;;;;;4133455;28;20506;-49
2023/05/20 04:12:43;;;;;;;1.88;0.95;;;16.90;58.10;;;;;;4128157;28;20456;-48
2023/05/20 04:15:06;;;;;;;0.95;0.85;;;16.90;58.10;;;;;;4121145;28;20708;-52
2023/05/20 04:17:30;;;;;;;0.80;0.77;;;16.90;58.00;;;;;;4124357;28;20039;-46
2023/05/20 04:19:52;;;;;;;10.05;1.00;;;17.00;58.00;;;;;;4130723;28;20485;-48
2023/05/20 04:22:15;;;;;;;1.48;0.82;;;17.00;57.80;;;;;;4133410;28;20038;-48
2023/05/20 04:24:37;;;;;;;1.17;1.00;;;17.10;57.70;;;;;;4128578;28;20499;-49
2023/05/20 04:27:00;;;;;;;2.10;1.30;;;17.00;57.60;;;;;;4095181;28;20050;-51
2023/05/20 04:29:23;;;;;;;1.70;1.50;;;17.10;57.70;;;;;;4128732;28;20061;-50
2023/05/20 04:31:48;;;;;;;2.45;1.50;;;17.20;57.60;;;;;;4130557;28;20429;-50
2023/05/20 04:34:11;;;;;;;3.15;1.80;;;17.30;57.30;;;;;;4126920;28;20054;-49
2023/05/20 04:36:33;;;;;;;3.22;1.80;;;17.40;57.10;;;;;;4126780;28;20034;-47
2023/05/20 04:38:56;;;;;;;2.67;1.80;;;17.50;57.00;;;;;;4131247;28;20508;-50
2023/05/20 04:41:18;;;;;;;1.95;1.60;;;17.60;56.70;;;;;;4121539;28;20431;-50
2023/05/20 04:43:41;;;;;;;1.38;1.27;;;17.70;56.60;;;;;;4114900;28;20038;-49
2023/05/20 04:46:04;;;;;;;3.13;1.45;;;17.70;56.60;;;;;;4117423;28;20181;-49
2023/05/20 04:48:27;;;;;;;2.05;1.40;;;17.80;56.50;;;;;;4116823;28;20405;-49
2023/05/20 04:50:51;;;;;;;3.92;1.50;;;17.90;56.40;;;;;;4128981;28;20053;-48
2023/05/20 04:53:13;;;;;;;1.90;1.35;;;18.00;56.30;;;;;;4132616;28;20045;-50
2023/05/20 04:55:36;;;;;;;1.30;1.20;;;18.10;56.30;;;;;;4125021;28;20409;-47
2023/05/20 04:57:58;;;;;;;1.45;1.35;;;18.10;56.10;;;;;;4123944;28;20102;-52
2023/05/20 05:00:21;;;;;;;3.20;1.30;;;18.10;56.10;;;;;;4128137;28;20100;-51
2023/05/20 05:02:43;;;;;;;1.17;1.08;;;18.20;56.20;;;;;;4121594;28;20098;-51
2023/05/20 05:05:06;;;;;;;1.60;1.00;;;18.20;56.00;;;;;;4133734;28;20038;-50
2023/05/20 05:07:28;;;;;;;1.23;1.13;;;18.30;56.00;;;;;;4132508;28;20034;-49
2023/05/20 05:09:51;;;;;;;1.70;1.08;;;18.30;55.80;;;;;;4132483;28;20038;-50
2023/05/20 05:12:13;;;;;;;0.77;0.77;;;18.40;55.90;;;;;;4125388;28;20041;-48
2023/05/20 05:14:36;;;;;;;1.38;1.10;;;18.40;56.50;;;;;;4126761;28;20055;-48
2023/05/20 05:16:58;;;;;;;0.88;0.77;;;18.50;56.00;;;;;;4113331;28;20038;-47
2023/05/20 05:19:20;;;;;;;0.82;0.82;;;18.50;56.00;;;;;;4131089;28;20503;-49
2023/05/20 05:21:43;;;;;;;1.35;0.98;;;18.50;56.00;;;;;;4130785;28;20466;-49
2023/05/20 05:24:06;;;;;;;0.70;0.70;;;18.60;56.00;;;;;;4136505;28;20038;-47
2023/05/20 05:26:28;;;;;;;1.10;0.90;;;18.60;55.80;;;;;;4132103;28;20121;-49
2023/05/20 05:28:50;;;;;;;0.80;0.80;;;18.60;56.30;;;;;;4131517;28;20039;-47
2023/05/20 05:31:13;;;;;;;0.68;0.68;;;18.60;55.70;;;;;;4130161;28;20124;-49
2023/05/20 05:33:35;;;;;;;0.93;0.80;;;18.60;55.80;;;;;;4135883;28;20410;-53
2023/05/20 05:35:58;;;;;;;0.70;0.70;;;18.60;55.80;;;;;;4114578;28;20296;-51
2023/05/20 05:38:20;;;;;;;0.65;0.65;;;18.60;55.80;;;;;;4122532;28;20034;-51
2023/05/20 05:40:43;;;;;;;0.70;0.60;;;18.60;55.80;;;;;;4117880;28;20189;-52
2023/05/20 05:43:05;;;;;;;0.85;0.85;;;18.60;55.80;;;;;;4102998;28;20077;-49
2023/05/20 05:45:27;;;;;;;0.65;0.65;;;18.60;55.80;;;;;;4117394;28;20130;-47
2023/05/20 05:47:50;;;;;;;0.82;0.60;;;18.60;55.70;;;;;;4116593;28;20509;-48
2023/05/20 05:50:12;;;;;;;0.68;0.60;;;18.50;55.70;;;;;;4120709;28;20048;-48
2023/05/20 05:52:35;;;;;;;0.88;0.60;;;18.50;55.50;;;;;;4120612;28;20042;-48
2023/05/20 05:54:57;;;;;;;1.33;0.50;;;18.50;55.50;;;;;;4119600;28;20053;-48
2023/05/20 05:57:20;;;;;;;0.68;0.60;;;18.50;55.60;;;;;;4119700;28;20039;-49
2023/05/20 05:59:42;;;;;;;0.73;0.50;;;18.40;55.60;;;;;;4122755;28;20145;-47
2023/05/20 06:02:05;;;;;;;0.93;0.60;;;18.40;55.70;;;;;;4120836;28;20130;-49
2023/05/20 06:04:27;;;;;;;0.68;0.68;;;18.40;55.80;;;;;;4129733;28;20100;-51
2023/05/20 06:06:50;;;;;;;0.63;0.60;;;18.40;55.90;;;;;;4125296;28;20042;-48
2023/05/20 06:09:12;;;;;;;0.60;0.60;;;18.40;56.50;;;;;;4108938;28;20607;-54
2023/05/20 06:11:35;;;;;;;0.50;0.50;;;18.40;55.90;;;;;;4124932;28;20046;-52
2023/05/20 06:13:57;;;;;;;0.73;0.68;;;18.40;56.00;;;;;;4123452;28;20595;-52
2023/05/20 06:16:20;;;;;;;0.63;0.60;;;18.50;56.00;;;;;;4133518;28;20039;-54
2023/05/20 06:18:43;;;;;;;0.50;0.50;;;18.50;55.90;;;;;;4132427;28;20038;-50
2023/05/20 06:21:05;;;;;;;0.43;0.43;;;18.60;56.00;;;;;;4131901;28;20545;-47
2023/05/20 06:23:27;;;;;;;1.50;0.60;;;18.60;56.20;;;;;;4133841;28;20049;-49
2023/05/20 06:25:51;;;;;;;0.50;0.50;;;18.70;56.50;;;;;;4137055;28;20048;-49
2023/05/20 06:28:13;;;;;;;1.83;1.10;;;18.90;55.90;;;;;;4126108;28;20026;-50
2023/05/20 06:30:36;;;;;;;4.93;2.25;;;19.10;55.20;;;;;;4129363;28;20413;-48
2023/05/20 06:32:58;;;;;;;4.22;2.30;;;19.40;54.40;;;;;;4129981;28;20053;-51
2023/05/20 06:35:20;;;;;;;6.03;3.47;;;19.80;54.00;;;;;;4124241;28;20177;-49
2023/05/20 06:37:43;;;;;;;11.00;6.28;;;19.90;53.80;;;;;;4130328;28;20041;-47
2023/05/20 06:40:06;;;;;;;9.98;5.63;;;19.80;53.40;;;;;;4143898;23;20121;-53
2023/05/20 06:42:29;;;;;;;9.27;5.60;;;19.60;53.10;;;;;;4097491;28;20093;-48
2023/05/20 06:44:53;;;;;;;14.38;7.15;;;19.50;53.20;;;;;;4103553;28;20631;-48
2023/05/20 06:47:17;;;;;;;14.23;8.60;;;19.50;53.00;;;;;;4101275;28;20047;-53
2023/05/20 06:49:39;;;;;;;13.00;7.45;;;19.40;53.20;;;;;;4097499;28;20039;-52
2023/05/20 06:52:02;;;;;;;14.00;7.80;;;19.20;53.80;;;;;;4097786;28;20050;-53
2023/05/20 06:54:24;;;;;;;13.50;7.40;;;19.00;54.20;;;;;;4099447;28;20042;-54
2023/05/20 06:56:47;;;;;;;12.85;6.88;;;18.90;54.40;;;;;;4092522;28;20125;-53
2023/05/20 06:59:09;;;;;;;12.77;6.32;;;18.80;54.60;;;;;;4100298;28;20093;-48
2023/05/20 07:01:32;;;;;;;8.98;5.18;;;18.70;54.80;;;;;;4095170;28;20378;-51
2023/05/20 07:03:54;;;;;;;8.98;5.57;;;18.60;54.90;;;;;;4100783;28;20125;-51
2023/05/20 07:06:16;;;;;;;10.95;6.22;;;18.50;54.90;;;;;;4070883;28;20102;-51
2023/05/20 07:08:39;;;;;;;12.85;7.47;;;18.50;55.00;;;;;;4080186;28;20048;-50
2023/05/20 07:11:01;;;;;;;18.88;9.32;;;18.40;55.10;;;;;;4084841;28;20047;-50
2023/05/20 07:13:24;;;;;;;21.20;9.82;;;18.40;55.00;;;;;;4085169;29;20606;-52
2023/05/20 07:15:47;;;;;;;22.42;10.68;;;18.40;54.90;;;;;;4080393;29;20039;-50
2023/05/20 07:18:10;;;;;;;16.13;9.48;;;18.40;55.00;;;;;;4088479;28;20510;-49
2023/05/20 07:20:32;;;;;;;18.65;9.40;;;18.40;54.90;;;;;;4087346;28;20483;-52
2023/05/20 07:22:55;;;;;;;17.98;10.68;;;18.30;55.20;;;;;;4087609;28;20039;-52
2023/05/20 07:25:18;;;;;;;15.90;9.95;;;18.30;55.40;;;;;;4088551;29;20130;-52
2023/05/20 07:27:40;;;;;;;15.80;8.57;;;18.30;55.60;;;;;;4082816;29;20068;-50
2023/05/20 07:30:03;;;;;;;15.57;8.48;;;18.20;55.80;;;;;;4074258;28;20052;-53
2023/05/20 07:32:25;;;;;;;18.90;9.27;;;18.20;55.80;;;;;;4079447;28;20054;-49
2023/05/20 07:34:47;;;;;;;17.23;7.88;;;18.20;56.00;;;;;;4084025;28;20047;-54
2023/05/20 07:37:11;;;;;;;14.18;7.18;;;18.20;56.20;;;;;;4078493;28;20039;-52
2023/05/20 07:39:33;;;;;;;14.90;8.18;;;18.10;56.40;;;;;;4089514;28;20051;-52
2023/05/20 07:41:56;;;;;;;12.07;7.50;;;18.10;56.10;;;;;;4076796;28;20052;-52
2023/05/20 07:44:20;;;;;;;15.60;7.30;;;18.10;56.30;;;;;;4078020;29;20047;-53
2023/05/20 07:46:42;;;;;;;13.02;6.65;;;18.10;56.60;;;;;;4084825;28;20095;-53
2023/05/20 07:49:05;;;;;;;12.65;6.47;;;18.10;57.10;;;;;;4080333;28;20044;-50
2023/05/20 07:51:27;;;;;;;13.50;5.60;;;18.10;57.20;;;;;;4086245;29;20119;-50
2023/05/20 07:53:50;;;;;;;10.15;6.15;;;18.10;57.10;;;;;;4085862;28;20458;-53
2023/05/20 07:56:12;;;;;;;10.15;5.47;;;18.10;57.00;;;;;;4089539;28;20067;-51
2023/05/20 07:58:35;;;;;;;9.43;5.38;;;18.00;57.10;;;;;;4084417;28;20043;-50
2023/05/20 08:00:57;;;;;;;9.15;4.47;;;18.00;57.20;;;;;;4073608;28;20578;-46
2023/05/20 08:03:21;;;;;;;9.15;4.03;;;18.00;57.70;;;;;;4078953;28;20393;-48
2023/05/20 08:05:43;;;;;;;9.15;3.63;;;18.00;58.20;;;;;;4080334;28;20089;-49
2023/05/20 08:08:06;;;;;;;10.02;3.53;;;18.10;58.40;;;;;;4073191;28;20044;-49
2023/05/20 08:10:28;;;;;;;7.53;3.75;;;18.10;58.40;;;;;;4072071;29;20051;-53
2023/05/20 08:12:51;;;;;;;7.78;3.50;;;18.10;58.40;;;;;;4073157;28;20043;-50
2023/05/20 08:15:13;;;;;;;8.88;3.30;;;18.10;58.10;;;;;;4068605;29;20051;-54
2023/05/20 08:17:37;;;;;;;8.80;3.05;;;18.10;58.40;;;;;;4064748;29;20491;-54
2023/05/20 08:20:00;;;;;;;8.57;3.00;;;18.10;58.60;;;;;;4071863;28;20047;-51
2023/05/20 08:22:22;;;;;;;5.35;3.28;;;18.10;58.60;;;;;;4068951;29;20326;-50
2023/05/20 08:24:45;;;;;;;6.10;2.83;;;18.10;57.50;;;;;;4067934;28;20548;-53
2023/05/20 08:27:07;;;;;;;5.38;2.65;;;18.10;56.90;;;;;;4069435;28;20075;-53
2023/05/20 08:29:30;;;;;;;8.40;2.90;;;18.10;56.40;;;;;;4063938;28;20130;-49
2023/05/20 08:31:52;;;;;;;7.10;2.42;;;18.10;56.50;;;;;;4069677;28;20035;-56
2023/05/20 08:34:15;;;;;;;5.85;2.58;;;18.10;57.10;;;;;;4065593;28;20110;-46
2023/05/20 08:36:38;;;;;;;4.82;2.30;;;18.20;57.50;;;;;;4072129;28;20150;-54
2023/05/20 08:39:01;;;;;;;6.47;2.40;;;18.10;57.70;;;;;;4058133;29;20048;-51
2023/05/20 08:41:24;;;;;;;6.07;2.28;;;18.10;57.80;;;;;;4066450;29;20507;-54
2023/05/20 08:43:47;;;;;;;5.35;2.00;;;18.10;58.00;;;;;;4069269;29;20111;-51
2023/05/20 08:46:10;;;;;;;3.42;1.95;;;18.20;58.20;;;;;;4066628;29;20043;-50
2023/05/20 08:48:37;;;;;;;4.68;2.00;;;18.20;58.20;;;;;;4067313;29;20044;-47
2023/05/20 08:51:02;;;;;;;2.90;1.55;;;18.20;58.20;;;;;;4071990;28;20051;-50
2023/05/20 08:53:25;;;;;;;4.93;2.03;;;18.20;58.40;;;;;;4066355;28;20540;-47
2023/05/20 08:56:01;;;;;;;4.15;1.83;;;18.10;58.60;;;;;;4061839;28;20527;-52
2023/05/20 08:58:24;;;;;;;2.80;1.75;;;18.10;58.70;;;;;;4071113;28;20067;-50
2023/05/20 09:00:47;;;;;;;3.58;1.77;;;18.10;59.00;;;;;;4075086;28;20097;-51
2023/05/20 09:03:10;;;;;;;3.20;1.70;;;18.10;59.00;;;;;;4074747;28;20043;-46
2023/05/20 09:05:33;;;;;;;2.15;1.40;;;18.10;59.00;;;;;;4075840;28;20047;-50
2023/05/20 09:08:09;;;;;;;2.40;1.33;;;18.10;59.10;;;;;;4071232;29;20111;-50
2023/05/20 09:10:32;;;;;;;1.75;1.25;;;18.10;59.00;;;;;;4068929;29;20051;-46
2023/05/20 09:12:54;;;;;;;2.60;1.70;;;18.10;59.10;;;;;;4072324;28;20051;-43
2023/05/20 09:15:18;;;;;;;2.80;1.38;;;18.10;59.30;;;;;;4071163;29;20048;-51
2023/05/20 09:17:41;;;;;;;2.95;1.33;;;18.10;59.40;;;;;;4070594;28;20050;-48
2023/05/20 09:20:07;;;;;;;2.95;1.42;;;18.10;59.50;;;;;;4082645;29;20263;-47
2023/05/20 09:22:30;;;;;;;3.38;1.40;;;18.10;59.10;;;;;;4078871;28;20415;-41
2023/05/20 09:24:53;;;;;;;1.95;1.30;;;18.10;59.50;;;;;;4083675;29;20040;-51
2023/05/20 09:27:15;;;;;;;1.33;1.10;;;18.10;59.70;;;;;;4076816;29;20063;-42
2023/05/20 09:29:38;;;;;;;1.85;1.13;;;18.10;59.80;;;;;;4084551;28;20431;-48
2023/05/20 09:32:03;;;;;;;3.38;1.50;;;18.10;59.90;;;;;;4080121;29;20043;-43
2023/05/20 09:34:25;;;;;;;1.13;0.95;;;18.10;59.90;;;;;;4071838;29;20079;-47
2023/05/20 09:36:50;;;;;;;1.95;1.30;;;18.10;60.10;;;;;;4073859;29;20047;-48
2023/05/20 09:39:16;;;;;;;2.33;1.10;;;18.10;60.10;;;;;;4072927;29;20052;-43
2023/05/20 09:42:12;;;;;;;1.75;1.05;;;18.10;60.40;;;;;;4079614;28;20568;-50
2023/05/20 09:44:35;;;;;;;1.67;1.15;;;18.10;60.80;;;;;;4070461;29;20043;-46
2023/05/20 09:46:59;;;;;;;1.80;1.20;;;18.10;60.00;;;;;;4060719;29;20119;-50
2023/05/20 09:49:22;;;;;;;1.83;1.20;;;18.10;60.10;;;;;;4071362;28;20074;-51
2023/05/20 09:51:46;;;;;;;1.63;1.02;;;18.10;60.20;;;;;;4073687;29;20079;-48
2023/05/20 09:54:11;;;;;;;3.08;1.30;;;18.10;60.10;;;;;;4072660;29;20427;-48
2023/05/20 09:56:36;;;;;;;2.95;1.40;;;18.10;60.10;;;;;;4073664;29;20054;-49
2023/05/20 09:58:59;;;;;;;2.38;1.30;;;18.10;60.10;;;;;;4070015;29;20050;-52
2023/05/20 10:01:21;;;;;;;4.47;1.40;;;18.10;60.00;;;;;;4069882;29;20511;-54
2023/05/20 10:03:44;;;;;;;1.75;0.82;;;18.10;60.00;;;;;;4059878;29;20050;-50
2023/05/20 10:06:25;;;;;;;1.98;1.30;;;18.10;60.00;;;;;;4074014;28;20050;-53
2023/05/20 10:09:06;;;;;;;3.38;1.27;;;18.10;60.10;;;;;;4071633;28;20446;-51
2023/05/20 10:11:40;;;;;;;3.20;1.35;;;18.10;60.10;;;;;;4055493;29;20635;-46
2023/05/20 10:14:12;;;;;;;;;;;18.10;60.20;;;;;;4072914;28;20127;-48
2023/05/20 10:16:58;;;;;;;4.07;1.52;;;18.10;60.20;;;;;;4058721;29;19915;-51
2023/05/20 10:19:33;;;;;;;6.28;1.52;;;18.10;60.20;;;;;;4074844;29;20134;-53
2023/05/20 10:22:08;;;;;;;6.15;1.60;;;18.10;60.20;;;;;;4071799;28;20043;-48
2023/05/20 10:24:41;;;;;;;4.78;1.65;;;18.10;60.20;;;;;;4067977;29;20044;-49
2023/05/20 10:27:09;;;;;;;3.42;1.60;;;18.10;60.20;;;;;;4072439;29;20131;-52
2023/05/20 10:29:51;;;;;;;2.67;1.60;;;18.10;60.20;;;;;;4073873;28;20036;-52
2023/05/20 10:32:31;;;;;;;4.03;1.70;;;18.10;60.20;;;;;;4073702;28;20054;-51
2023/05/20 10:34:58;;;;;;;2.53;1.35;;;18.10;60.20;;;;;;4072610;28;20039;-53
2023/05/20 10:37:44;;;;;;;7.45;1.60;;;18.10;60.40;;;;;;4076562;28;20413;-50
2023/05/20 10:40:08;;;;;;;6.38;2.13;;;18.00;60.20;;;;;;4066186;29;20210;-53
2023/05/20 10:42:30;;;;;;;3.58;1.77;;;18.10;60.30;;;;;;4075749;29;20050;-46
2023/05/20 10:44:53;;;;;;;4.13;1.65;;;18.00;60.30;;;;;;4072187;28;20511;-49
2023/05/20 10:47:16;;;;;;;3.78;1.52;;;18.00;60.50;;;;;;4066960;29;20047;-43
2023/05/20 10:49:45;;;;;;;4.85;1.80;;;18.00;60.60;;;;;;4070168;29;20563;-48
2023/05/20 10:52:10;;;;;;;4.60;1.67;;;18.00;60.70;;;;;;4074616;28;20047;-45
2023/05/20 10:54:36;;;;;;;3.17;2.17;;;18.00;60.70;;;;;;4070339;29;20551;-47
2023/05/20 10:56:58;;;;;;;5.40;1.77;;;18.00;60.80;;;;;;4056531;29;20548;-56
2023/05/20 10:59:24;;;;;;;3.38;2.03;;;18.00;60.70;;;;;;4072741;28;20050;-55
2023/05/20 11:01:47;;;;;;;2.55;1.85;;;18.00;60.90;;;;;;4070371;28;20044;-47
2023/05/20 11:04:10;;;;;;;3.10;1.77;;;18.00;60.90;;;;;;4071499;29;20039;-47
2023/05/20 11:06:33;;;;;;;5.63;2.30;;;18.00;60.80;;;;;;4070457;28;20044;-50
2023/05/20 11:09:03;;;;;;;3.72;1.85;;;18.00;60.90;;;;;;4074493;28;20047;-51
2023/05/20 11:11:25;;;;;;;5.03;2.33;;;18.00;60.90;;;;;;4071996;29;20492;-54
2023/05/20 11:13:54;;;;;;;3.00;2.08;;;18.00;60.80;;;;;;4073419;29;20039;-51
2023/05/20 11:16:16;;;;;;;4.22;2.17;;;18.00;60.90;;;;;;4073415;28;20043;-55
2023/05/20 11:18:39;;;;;;;5.05;1.85;;;17.90;61.50;;;;;;4071827;29;20067;-52
2023/05/20 11:21:02;;;;;;;3.13;1.98;;;17.90;61.10;;;;;;4076780;28;20159;-51
2023/05/20 11:23:27;;;;;;;5.22;2.30;;;18.00;61.30;;;;;;4079635;28;20649;-51
2023/05/20 11:25:53;;;;;;;7.43;2.20;;;18.00;61.20;;;;;;4077457;28;20571;-47
2023/05/20 11:28:16;;;;;;;3.92;2.63;;;18.00;61.00;;;;;;4073565;28;20040;-48
2023/05/20 11:30:39;;;;;;;5.75;3.25;;;18.00;60.00;;;;;;4075714;29;20043;-50
2023/05/20 11:33:03;;;;;;;21.88;4.63;;;17.90;59.00;;;;;;4075999;28;20419;-51
2023/05/20 11:35:30;;;;;;;30.63;5.68;;;17.90;58.80;;;;;;4057198;29;20142;-53
2023/05/20 11:37:56;;;;;;;26.20;5.40;;;17.90;59.40;;;;;;4076983;29;20253;-48
2023/05/20 11:40:25;;;;;;;16.17;4.15;;;17.90;59.60;;;;;;4070017;28;20032;-50
2023/05/20 11:42:47;;;;;;;25.30;3.78;;;17.90;59.80;;;;;;4082635;28;20031;-46
2023/05/20 11:45:13;;;;;;;12.82;3.70;;;17.90;60.00;;;;;;4078639;29;20478;-46
2023/05/20 11:47:36;;;;;;;15.50;4.05;;;18.00;60.00;;;;;;4083280;29;20440;-48
2023/05/20 11:49:58;;;;;;;10.10;3.20;;;18.00;60.20;;;;;;4085414;28;21429;-43
2023/05/20 11:52:20;;;;;;;9.13;3.55;;;18.00;60.40;;;;;;4086759;28;20480;-56
2023/05/20 11:54:43;;;;;;;12.55;3.53;;;18.00;60.30;;;;;;4070483;29;20059;-64
2023/05/20 11:57:06;;;;;;;25.30;4.05;;;18.00;60.20;;;;;;4086310;28;20045;-59
2023/05/20 11:59:29;;;;;;;10.50;4.20;;;18.00;60.00;;;;;;4083793;28;20574;-47
2023/05/20 12:01:52;;;;;;;15.75;4.55;;;18.00;59.30;;;;;;4080685;28;20040;-54
2023/05/20 12:04:15;;;;;;;17.58;3.67;;;18.00;59.60;;;;;;4075617;29;20083;-54
2023/05/20 12:06:37;;;;;;;9.48;3.17;;;18.00;59.50;;;;;;4075478;29;20610;-52
2023/05/20 12:09:05;;;;;;;8.70;3.15;;;18.00;59.60;;;;;;4071372;28;20441;-48
2023/05/20 12:11:28;;;;;;;9.43;3.53;;;18.00;59.80;;;;;;4083721;29;20042;-54
2023/05/20 12:13:50;;;;;;;7.75;3.03;;;18.00;59.80;;;;;;4081797;28;20071;-51
2023/05/20 12:16:13;;;;;;;7.97;2.83;;;18.00;59.80;;;;;;4083565;28;20054;-48
2023/05/20 12:18:36;;;;;;;6.15;2.75;;;18.00;59.80;;;;;;4082165;28;20051;-53
2023/05/20 12:21:00;;;;;;;4.80;2.60;;;18.00;59.90;;;;;;4077862;28;20047;-54
2023/05/20 12:23:22;;;;;;;;;;;18.00;59.90;;;;;;4076792;29;20047;-52
2023/05/20 12:25:46;;;;;;;4.13;2.40;;;18.00;59.90;;;;;;4087113;28;19984;-49
2023/05/20 12:28:08;;;;;;;5.90;2.55;;;18.00;60.00;;;;;;4081649;28;20048;-53